sensor_id;sensor_type;location;lat;lon;timestamp;P1;durP1;ratioP1;P2;durP2;ratioP2
56991;SDS011;42885;49.754;18.636;2024-03-06T00:02:14;108.35;;;60.40;;
56991;SDS011;42885;49.754;18.636;2024-03-06T00:05:03;108.03;;;61.37;;
56991;SDS011;42885;49.754;18.636;2024-03-06T00:07:55;112.35;;;64.17;;
56991;SDS011;42885;49.754;18.636;2024-03-06T00:10:44;106.75;;;61.33;;
56991;SDS011;42885;49.754;18.636;2024-03-06T00:13:35;104.45;;;59.73;;
56991;SDS011;42885;49.754;18.636;2024-03-06T00:16:23;114.62;;;63.00;;
56991;SDS011;42885;49.754;18.636;2024-03-06T00:19:14;116.22;;;62.43;;
56991;SDS011;42885;49.754;18.636;2024-03-06T00:22:04;108.35;;;60.85;;
56991;SDS011;42885;49.754;18.636;2024-03-06T00:24:53;104.10;;;60.60;;
56991;SDS011;42885;49.754;18.636;2024-03-06T00:27:42;110.95;;;62.78;;
56991;SDS011;42885;49.754;18.636;2024-03-06T00:30:31;106.52;;;62.27;;
56991;SDS011;42885;49.754;18.636;2024-03-06T00:33:20;107.27;;;62.10;;
56991;SDS011;42885;49.754;18.636;2024-03-06T00:36:10;104.63;;;61.15;;
56991;SDS011;42885;49.754;18.636;2024-03-06T00:39:00;102.00;;;58.48;;
56991;SDS011;42885;49.754;18.636;2024-03-06T00:41:51;105.78;;;59.85;;
56991;SDS011;42885;49.754;18.636;2024-03-06T00:44:40;108.72;;;62.80;;
56991;SDS011;42885;49.754;18.636;2024-03-06T00:47:30;106.58;;;60.80;;
56991;SDS011;42885;49.754;18.636;2024-03-06T00:50:20;105.03;;;58.87;;
56991;SDS011;42885;49.754;18.636;2024-03-06T00:53:09;111.17;;;60.20;;
56991;SDS011;42885;49.754;18.636;2024-03-06T00:55:58;113.08;;;62.53;;
56991;SDS011;42885;49.754;18.636;2024-03-06T00:58:48;113.37;;;62.90;;
56991;SDS011;42885;49.754;18.636;2024-03-06T01:01:37;116.08;;;62.43;;
56991;SDS011;42885;49.754;18.636;2024-03-06T01:04:27;111.88;;;61.83;;
56991;SDS011;42885;49.754;18.636;2024-03-06T01:07:15;111.77;;;61.90;;
56991;SDS011;42885;49.754;18.636;2024-03-06T01:10:04;104.03;;;60.53;;
56991;SDS011;42885;49.754;18.636;2024-03-06T01:12:54;107.40;;;62.23;;
56991;SDS011;42885;49.754;18.636;2024-03-06T01:15:44;111.50;;;62.63;;
56991;SDS011;42885;49.754;18.636;2024-03-06T01:18:33;114.77;;;63.13;;
56991;SDS011;42885;49.754;18.636;2024-03-06T01:21:22;112.97;;;63.80;;
56991;SDS011;42885;49.754;18.636;2024-03-06T01:24:14;118.87;;;65.72;;
56991;SDS011;42885;49.754;18.636;2024-03-06T01:27:03;116.40;;;66.02;;
56991;SDS011;42885;49.754;18.636;2024-03-06T01:29:53;122.75;;;67.42;;
56991;SDS011;42885;49.754;18.636;2024-03-06T01:32:42;119.10;;;63.83;;
56991;SDS011;42885;49.754;18.636;2024-03-06T01:35:32;119.93;;;64.75;;
56991;SDS011;42885;49.754;18.636;2024-03-06T01:38:21;117.70;;;64.47;;
56991;SDS011;42885;49.754;18.636;2024-03-06T01:41:11;122.17;;;65.05;;
56991;SDS011;42885;49.754;18.636;2024-03-06T01:44:01;119.75;;;65.28;;
56991;SDS011;42885;49.754;18.636;2024-03-06T01:46:51;126.10;;;64.80;;
56991;SDS011;42885;49.754;18.636;2024-03-06T01:49:42;120.53;;;65.32;;
56991;SDS011;42885;49.754;18.636;2024-03-06T01:52:32;117.08;;;65.42;;
56991;SDS011;42885;49.754;18.636;2024-03-06T01:55:21;110.97;;;61.83;;
56991;SDS011;42885;49.754;18.636;2024-03-06T01:58:11;115.30;;;61.95;;
56991;SDS011;42885;49.754;18.636;2024-03-06T02:01:00;108.70;;;57.57;;
56991;SDS011;42885;49.754;18.636;2024-03-06T02:03:51;100.07;;;57.60;;
56991;SDS011;42885;49.754;18.636;2024-03-06T02:06:41;102.90;;;57.90;;
56991;SDS011;42885;49.754;18.636;2024-03-06T02:09:30;99.50;;;56.90;;
56991;SDS011;42885;49.754;18.636;2024-03-06T02:12:19;99.85;;;58.50;;
56991;SDS011;42885;49.754;18.636;2024-03-06T02:15:08;106.72;;;58.92;;
56991;SDS011;42885;49.754;18.636;2024-03-06T02:18:04;104.67;;;59.93;;
56991;SDS011;42885;49.754;18.636;2024-03-06T02:20:54;106.58;;;60.03;;
56991;SDS011;42885;49.754;18.636;2024-03-06T02:23:43;103.95;;;58.50;;
56991;SDS011;42885;49.754;18.636;2024-03-06T02:26:32;109.75;;;60.75;;
56991;SDS011;42885;49.754;18.636;2024-03-06T02:29:23;108.83;;;60.28;;
56991;SDS011;42885;49.754;18.636;2024-03-06T02:32:13;107.78;;;60.30;;
56991;SDS011;42885;49.754;18.636;2024-03-06T02:35:04;105.55;;;58.13;;
56991;SDS011;42885;49.754;18.636;2024-03-06T02:37:54;115.17;;;61.28;;
56991;SDS011;42885;49.754;18.636;2024-03-06T02:40:45;104.75;;;58.85;;
56991;SDS011;42885;49.754;18.636;2024-03-06T02:43:35;102.20;;;57.83;;
56991;SDS011;42885;49.754;18.636;2024-03-06T02:46:26;106.52;;;59.88;;
56991;SDS011;42885;49.754;18.636;2024-03-06T02:49:15;100.67;;;60.40;;
56991;SDS011;42885;49.754;18.636;2024-03-06T02:52:06;107.72;;;59.42;;
56991;SDS011;42885;49.754;18.636;2024-03-06T02:54:55;100.03;;;56.97;;
56991;SDS011;42885;49.754;18.636;2024-03-06T02:57:45;102.47;;;56.17;;
56991;SDS011;42885;49.754;18.636;2024-03-06T03:00:33;101.40;;;55.17;;
56991;SDS011;42885;49.754;18.636;2024-03-06T03:03:22;95.60;;;54.73;;
56991;SDS011;42885;49.754;18.636;2024-03-06T03:06:12;93.55;;;53.17;;
56991;SDS011;42885;49.754;18.636;2024-03-06T03:09:02;93.17;;;55.55;;
56991;SDS011;42885;49.754;18.636;2024-03-06T03:11:51;88.65;;;52.53;;
56991;SDS011;42885;49.754;18.636;2024-03-06T03:14:40;91.40;;;52.20;;
56991;SDS011;42885;49.754;18.636;2024-03-06T03:17:30;92.72;;;52.88;;
56991;SDS011;42885;49.754;18.636;2024-03-06T03:20:20;86.28;;;51.48;;
56991;SDS011;42885;49.754;18.636;2024-03-06T03:23:09;83.67;;;49.73;;
56991;SDS011;42885;49.754;18.636;2024-03-06T03:26:00;89.00;;;50.17;;
56991;SDS011;42885;49.754;18.636;2024-03-06T03:28:51;86.57;;;50.58;;
56991;SDS011;42885;49.754;18.636;2024-03-06T03:31:41;93.78;;;51.28;;
56991;SDS011;42885;49.754;18.636;2024-03-06T03:34:31;91.87;;;52.62;;
56991;SDS011;42885;49.754;18.636;2024-03-06T03:37:24;89.73;;;51.97;;
56991;SDS011;42885;49.754;18.636;2024-03-06T03:40:14;92.50;;;51.37;;
56991;SDS011;42885;49.754;18.636;2024-03-06T03:43:04;89.90;;;52.00;;
56991;SDS011;42885;49.754;18.636;2024-03-06T03:45:54;94.47;;;52.30;;
56991;SDS011;42885;49.754;18.636;2024-03-06T03:48:43;85.20;;;50.95;;
56991;SDS011;42885;49.754;18.636;2024-03-06T03:51:33;86.63;;;49.38;;
56991;SDS011;42885;49.754;18.636;2024-03-06T03:54:21;88.60;;;50.98;;
56991;SDS011;42885;49.754;18.636;2024-03-06T03:57:11;80.75;;;48.92;;
56991;SDS011;42885;49.754;18.636;2024-03-06T04:00:01;85.35;;;49.20;;
56991;SDS011;42885;49.754;18.636;2024-03-06T04:02:51;89.67;;;48.95;;
56991;SDS011;42885;49.754;18.636;2024-03-06T04:05:40;84.58;;;50.85;;
56991;SDS011;42885;49.754;18.636;2024-03-06T04:08:29;88.72;;;50.35;;
56991;SDS011;42885;49.754;18.636;2024-03-06T04:11:19;98.52;;;53.80;;
56991;SDS011;42885;49.754;18.636;2024-03-06T04:14:08;118.60;;;72.22;;
56991;SDS011;42885;49.754;18.636;2024-03-06T04:16:59;179.85;;;109.32;;
56991;SDS011;42885;49.754;18.636;2024-03-06T04:19:49;99.72;;;55.75;;
56991;SDS011;42885;49.754;18.636;2024-03-06T04:22:41;96.00;;;55.58;;
56991;SDS011;42885;49.754;18.636;2024-03-06T04:25:33;99.03;;;55.67;;
56991;SDS011;42885;49.754;18.636;2024-03-06T04:28:22;96.87;;;54.40;;
56991;SDS011;42885;49.754;18.636;2024-03-06T04:31:11;100.67;;;55.75;;
56991;SDS011;42885;49.754;18.636;2024-03-06T04:34:00;104.15;;;56.23;;
56991;SDS011;42885;49.754;18.636;2024-03-06T04:36:49;97.67;;;57.13;;
56991;SDS011;42885;49.754;18.636;2024-03-06T04:39:38;104.60;;;58.58;;
56991;SDS011;42885;49.754;18.636;2024-03-06T04:42:28;99.50;;;55.85;;
56991;SDS011;42885;49.754;18.636;2024-03-06T04:45:17;106.07;;;59.77;;
56991;SDS011;42885;49.754;18.636;2024-03-06T04:48:06;105.15;;;57.62;;
56991;SDS011;42885;49.754;18.636;2024-03-06T04:50:56;104.72;;;58.55;;
56991;SDS011;42885;49.754;18.636;2024-03-06T04:53:45;107.10;;;58.13;;
56991;SDS011;42885;49.754;18.636;2024-03-06T04:56:34;101.65;;;59.23;;
56991;SDS011;42885;49.754;18.636;2024-03-06T04:59:24;108.03;;;59.75;;
56991;SDS011;42885;49.754;18.636;2024-03-06T05:02:13;101.30;;;56.98;;
56991;SDS011;42885;49.754;18.636;2024-03-06T05:05:03;115.00;;;62.60;;
56991;SDS011;42885;49.754;18.636;2024-03-06T05:07:52;107.87;;;59.77;;
56991;SDS011;42885;49.754;18.636;2024-03-06T05:10:41;108.55;;;60.23;;
56991;SDS011;42885;49.754;18.636;2024-03-06T05:13:30;106.07;;;59.08;;
56991;SDS011;42885;49.754;18.636;2024-03-06T05:16:19;115.80;;;62.90;;
56991;SDS011;42885;49.754;18.636;2024-03-06T05:19:10;114.92;;;63.02;;
56991;SDS011;42885;49.754;18.636;2024-03-06T05:21:59;112.62;;;61.88;;
56991;SDS011;42885;49.754;18.636;2024-03-06T05:24:48;125.00;;;64.20;;
56991;SDS011;42885;49.754;18.636;2024-03-06T05:27:37;121.62;;;66.75;;
56991;SDS011;42885;49.754;18.636;2024-03-06T05:30:26;118.33;;;63.23;;
56991;SDS011;42885;49.754;18.636;2024-03-06T05:33:15;117.85;;;64.32;;
56991;SDS011;42885;49.754;18.636;2024-03-06T05:36:05;118.70;;;63.40;;
56991;SDS011;42885;49.754;18.636;2024-03-06T05:38:54;118.67;;;63.95;;
56991;SDS011;42885;49.754;18.636;2024-03-06T05:41:44;119.35;;;65.62;;
56991;SDS011;42885;49.754;18.636;2024-03-06T05:44:34;124.87;;;66.77;;
56991;SDS011;42885;49.754;18.636;2024-03-06T05:47:23;120.25;;;66.47;;
56991;SDS011;42885;49.754;18.636;2024-03-06T05:50:12;120.10;;;64.92;;
56991;SDS011;42885;49.754;18.636;2024-03-06T05:53:03;120.90;;;67.50;;
56991;SDS011;42885;49.754;18.636;2024-03-06T05:55:52;139.30;;;76.40;;
56991;SDS011;42885;49.754;18.636;2024-03-06T05:58:42;132.70;;;70.17;;
56991;SDS011;42885;49.754;18.636;2024-03-06T06:01:39;130.72;;;67.75;;
56991;SDS011;42885;49.754;18.636;2024-03-06T06:04:23;125.05;;;65.15;;
56991;SDS011;42885;49.754;18.636;2024-03-06T06:07:12;145.38;;;66.25;;
56991;SDS011;42885;49.754;18.636;2024-03-06T06:10:02;144.22;;;70.52;;
56991;SDS011;42885;49.754;18.636;2024-03-06T06:12:54;140.33;;;70.80;;
56991;SDS011;42885;49.754;18.636;2024-03-06T06:15:44;133.73;;;69.30;;
56991;SDS011;42885;49.754;18.636;2024-03-06T06:18:34;180.63;;;72.27;;
56991;SDS011;42885;49.754;18.636;2024-03-06T06:21:23;331.23;;;76.00;;
56991;SDS011;42885;49.754;18.636;2024-03-06T06:24:12;208.13;;;75.12;;
56991;SDS011;42885;49.754;18.636;2024-03-06T06:27:02;509.85;;;86.37;;
56991;SDS011;42885;49.754;18.636;2024-03-06T06:29:52;838.57;;;95.55;;
56991;SDS011;42885;49.754;18.636;2024-03-06T06:32:42;285.25;;;75.70;;
56991;SDS011;42885;49.754;18.636;2024-03-06T06:35:31;261.75;;;76.37;;
56991;SDS011;42885;49.754;18.636;2024-03-06T06:38:21;158.85;;;72.70;;
56991;SDS011;42885;49.754;18.636;2024-03-06T06:41:10;193.13;;;78.52;;
56991;SDS011;42885;49.754;18.636;2024-03-06T06:44:00;213.23;;;74.47;;
56991;SDS011;42885;49.754;18.636;2024-03-06T06:46:50;188.18;;;74.58;;
56991;SDS011;42885;49.754;18.636;2024-03-06T06:49:40;363.18;;;73.12;;
56991;SDS011;42885;49.754;18.636;2024-03-06T06:52:29;173.05;;;63.58;;
56991;SDS011;42885;49.754;18.636;2024-03-06T06:55:19;206.75;;;67.45;;
56991;SDS011;42885;49.754;18.636;2024-03-06T06:58:10;208.85;;;67.20;;
56991;SDS011;42885;49.754;18.636;2024-03-06T07:00:59;373.15;;;73.72;;
56991;SDS011;42885;49.754;18.636;2024-03-06T07:03:50;189.82;;;70.32;;
56991;SDS011;42885;49.754;18.636;2024-03-06T07:06:40;304.80;;;69.86;;
56991;SDS011;42885;49.754;18.636;2024-03-06T07:09:29;174.68;;;65.22;;
56991;SDS011;42885;49.754;18.636;2024-03-06T07:12:18;131.05;;;61.13;;
56991;SDS011;42885;49.754;18.636;2024-03-06T07:15:08;127.97;;;61.37;;
56991;SDS011;42885;49.754;18.636;2024-03-06T07:17:57;127.43;;;60.20;;
56991;SDS011;42885;49.754;18.636;2024-03-06T07:20:47;145.32;;;62.25;;
56991;SDS011;42885;49.754;18.636;2024-03-06T07:23:35;185.97;;;66.70;;
56991;SDS011;42885;49.754;18.636;2024-03-06T07:26:24;140.60;;;65.85;;
56991;SDS011;42885;49.754;18.636;2024-03-06T07:29:14;120.60;;;62.53;;
56991;SDS011;42885;49.754;18.636;2024-03-06T07:32:03;106.73;;;57.90;;
56991;SDS011;42885;49.754;18.636;2024-03-06T07:34:52;100.82;;;56.28;;
56991;SDS011;42885;49.754;18.636;2024-03-06T07:37:41;116.85;;;59.23;;
56991;SDS011;42885;49.754;18.636;2024-03-06T07:40:31;110.97;;;59.07;;
56991;SDS011;42885;49.754;18.636;2024-03-06T07:43:20;114.25;;;60.12;;
56991;SDS011;42885;49.754;18.636;2024-03-06T07:46:10;143.30;;;65.57;;
56991;SDS011;42885;49.754;18.636;2024-03-06T07:49:00;147.50;;;67.58;;
56991;SDS011;42885;49.754;18.636;2024-03-06T07:51:50;135.10;;;65.60;;
56991;SDS011;42885;49.754;18.636;2024-03-06T07:54:40;121.08;;;59.68;;
56991;SDS011;42885;49.754;18.636;2024-03-06T07:57:29;162.47;;;58.13;;
56991;SDS011;42885;49.754;18.636;2024-03-06T08:00:18;160.03;;;55.33;;
56991;SDS011;42885;49.754;18.636;2024-03-06T08:03:08;132.65;;;55.45;;
56991;SDS011;42885;49.754;18.636;2024-03-06T08:05:58;109.57;;;54.27;;
56991;SDS011;42885;49.754;18.636;2024-03-06T08:08:48;138.40;;;54.88;;
56991;SDS011;42885;49.754;18.636;2024-03-06T08:11:39;105.50;;;50.63;;
56991;SDS011;42885;49.754;18.636;2024-03-06T08:14:28;109.85;;;52.55;;
56991;SDS011;42885;49.754;18.636;2024-03-06T08:17:17;103.87;;;50.50;;
56991;SDS011;42885;49.754;18.636;2024-03-06T08:20:07;106.87;;;53.60;;
56991;SDS011;42885;49.754;18.636;2024-03-06T08:22:56;80.42;;;44.53;;
56991;SDS011;42885;49.754;18.636;2024-03-06T08:25:47;79.75;;;44.50;;
56991;SDS011;42885;49.754;18.636;2024-03-06T08:28:36;82.02;;;44.60;;
56991;SDS011;42885;49.754;18.636;2024-03-06T08:31:25;84.50;;;45.63;;
56991;SDS011;42885;49.754;18.636;2024-03-06T08:34:13;86.30;;;43.40;;
56991;SDS011;42885;49.754;18.636;2024-03-06T08:37:03;84.03;;;44.88;;
56991;SDS011;42885;49.754;18.636;2024-03-06T08:39:53;81.12;;;43.92;;
56991;SDS011;42885;49.754;18.636;2024-03-06T08:42:42;79.77;;;43.42;;
56991;SDS011;42885;49.754;18.636;2024-03-06T08:45:35;79.07;;;45.33;;
56991;SDS011;42885;49.754;18.636;2024-03-06T08:48:24;75.50;;;41.98;;
56991;SDS011;42885;49.754;18.636;2024-03-06T08:51:13;73.40;;;39.65;;
56991;SDS011;42885;49.754;18.636;2024-03-06T08:54:02;72.40;;;41.70;;
56991;SDS011;42885;49.754;18.636;2024-03-06T08:56:51;72.72;;;40.67;;
56991;SDS011;42885;49.754;18.636;2024-03-06T08:59:42;66.75;;;39.95;;
56991;SDS011;42885;49.754;18.636;2024-03-06T09:02:31;70.28;;;40.90;;
56991;SDS011;42885;49.754;18.636;2024-03-06T09:05:20;63.73;;;38.55;;
56991;SDS011;42885;49.754;18.636;2024-03-06T09:08:10;64.45;;;38.63;;
56991;SDS011;42885;49.754;18.636;2024-03-06T09:11:00;69.27;;;40.12;;
56991;SDS011;42885;49.754;18.636;2024-03-06T09:13:49;64.00;;;38.85;;
56991;SDS011;42885;49.754;18.636;2024-03-06T09:16:39;68.78;;;40.35;;
56991;SDS011;42885;49.754;18.636;2024-03-06T09:19:28;72.67;;;42.00;;
56991;SDS011;42885;49.754;18.636;2024-03-06T09:22:17;65.00;;;38.00;;
56991;SDS011;42885;49.754;18.636;2024-03-06T09:25:07;72.17;;;41.48;;
56991;SDS011;42885;49.754;18.636;2024-03-06T09:27:56;70.30;;;42.10;;
56991;SDS011;42885;49.754;18.636;2024-03-06T09:30:46;69.82;;;42.55;;
56991;SDS011;42885;49.754;18.636;2024-03-06T09:33:36;69.40;;;41.98;;
56991;SDS011;42885;49.754;18.636;2024-03-06T09:36:26;65.52;;;38.88;;
56991;SDS011;42885;49.754;18.636;2024-03-06T09:39:16;70.72;;;42.83;;
56991;SDS011;42885;49.754;18.636;2024-03-06T09:42:12;72.80;;;42.65;;
56991;SDS011;42885;49.754;18.636;2024-03-06T09:45:04;67.85;;;40.45;;
56991;SDS011;42885;49.754;18.636;2024-03-06T09:47:54;71.37;;;40.27;;
56991;SDS011;42885;49.754;18.636;2024-03-06T09:50:44;65.12;;;39.40;;
56991;SDS011;42885;49.754;18.636;2024-03-06T09:53:38;72.05;;;41.73;;
56991;SDS011;42885;49.754;18.636;2024-03-06T09:56:30;73.28;;;42.20;;
56991;SDS011;42885;49.754;18.636;2024-03-06T09:59:20;70.42;;;42.05;;
56991;SDS011;42885;49.754;18.636;2024-03-06T10:02:14;73.97;;;43.13;;
56991;SDS011;42885;49.754;18.636;2024-03-06T10:05:01;66.60;;;40.12;;
56991;SDS011;42885;49.754;18.636;2024-03-06T10:07:52;71.87;;;40.67;;
56991;SDS011;42885;49.754;18.636;2024-03-06T10:10:42;69.17;;;41.50;;
56991;SDS011;42885;49.754;18.636;2024-03-06T10:13:33;72.87;;;42.60;;
56991;SDS011;42885;49.754;18.636;2024-03-06T10:16:23;73.65;;;43.05;;
56991;SDS011;42885;49.754;18.636;2024-03-06T10:19:16;73.45;;;42.78;;
56991;SDS011;42885;49.754;18.636;2024-03-06T10:22:06;70.93;;;41.53;;
56991;SDS011;42885;49.754;18.636;2024-03-06T10:24:56;66.50;;;41.67;;
56991;SDS011;42885;49.754;18.636;2024-03-06T10:27:45;70.40;;;41.68;;
56991;SDS011;42885;49.754;18.636;2024-03-06T10:30:34;70.05;;;41.88;;
56991;SDS011;42885;49.754;18.636;2024-03-06T10:33:31;71.35;;;42.45;;
56991;SDS011;42885;49.754;18.636;2024-03-06T10:36:26;70.92;;;40.17;;
56991;SDS011;42885;49.754;18.636;2024-03-06T10:39:16;66.82;;;41.20;;
56991;SDS011;42885;49.754;18.636;2024-03-06T10:42:08;73.37;;;43.92;;
56991;SDS011;42885;49.754;18.636;2024-03-06T10:45:01;77.70;;;44.83;;
56991;SDS011;42885;49.754;18.636;2024-03-06T10:47:55;71.47;;;40.90;;
56991;SDS011;42885;49.754;18.636;2024-03-06T10:50:45;73.12;;;42.90;;
56991;SDS011;42885;49.754;18.636;2024-03-06T10:53:37;69.05;;;42.27;;
56991;SDS011;42885;49.754;18.636;2024-03-06T10:56:28;67.22;;;41.98;;
56991;SDS011;42885;49.754;18.636;2024-03-06T10:59:17;69.65;;;42.00;;
56991;SDS011;42885;49.754;18.636;2024-03-06T11:02:08;68.30;;;40.60;;
56991;SDS011;42885;49.754;18.636;2024-03-06T11:05:00;65.00;;;41.92;;
56991;SDS011;42885;49.754;18.636;2024-03-06T11:07:52;72.72;;;43.58;;
56991;SDS011;42885;49.754;18.636;2024-03-06T11:10:42;62.43;;;39.17;;
56991;SDS011;42885;49.754;18.636;2024-03-06T11:13:32;64.75;;;42.62;;
56991;SDS011;42885;49.754;18.636;2024-03-06T11:16:26;66.90;;;42.73;;
56991;SDS011;42885;49.754;18.636;2024-03-06T11:19:18;63.60;;;39.92;;
56991;SDS011;42885;49.754;18.636;2024-03-06T11:22:07;70.75;;;40.80;;
56991;SDS011;42885;49.754;18.636;2024-03-06T11:24:56;64.97;;;40.67;;
56991;SDS011;42885;49.754;18.636;2024-03-06T11:28:04;64.13;;;41.03;;
56991;SDS011;42885;49.754;18.636;2024-03-06T11:33:52;55.90;;;37.70;;
56991;SDS011;42885;49.754;18.636;2024-03-06T11:39:33;56.60;;;36.65;;
56991;SDS011;42885;49.754;18.636;2024-03-06T11:42:32;54.40;;;35.13;;
56991;SDS011;42885;49.754;18.636;2024-03-06T11:45:26;52.50;;;35.58;;
56991;SDS011;42885;49.754;18.636;2024-03-06T11:48:17;49.18;;;33.58;;
56991;SDS011;42885;49.754;18.636;2024-03-06T11:51:07;46.95;;;33.65;;
56991;SDS011;42885;49.754;18.636;2024-03-06T11:53:57;50.55;;;33.80;;
56991;SDS011;42885;49.754;18.636;2024-03-06T11:56:47;49.95;;;34.27;;
56991;SDS011;42885;49.754;18.636;2024-03-06T11:59:37;48.98;;;34.45;;
56991;SDS011;42885;49.754;18.636;2024-03-06T12:02:27;49.48;;;33.85;;
56991;SDS011;42885;49.754;18.636;2024-03-06T12:05:18;50.88;;;32.73;;
56991;SDS011;42885;49.754;18.636;2024-03-06T12:08:07;47.38;;;33.08;;
56991;SDS011;42885;49.754;18.636;2024-03-06T12:10:56;48.95;;;34.23;;
56991;SDS011;42885;49.754;18.636;2024-03-06T12:13:46;46.50;;;32.90;;
56991;SDS011;42885;49.754;18.636;2024-03-06T12:16:37;52.00;;;35.10;;
56991;SDS011;42885;49.754;18.636;2024-03-06T12:19:26;51.63;;;35.58;;
56991;SDS011;42885;49.754;18.636;2024-03-06T12:22:17;53.05;;;34.60;;
56991;SDS011;42885;49.754;18.636;2024-03-06T12:25:06;53.20;;;35.30;;
56991;SDS011;42885;49.754;18.636;2024-03-06T12:28:05;51.80;;;34.27;;
56991;SDS011;42885;49.754;18.636;2024-03-06T12:30:47;53.20;;;35.63;;
56991;SDS011;42885;49.754;18.636;2024-03-06T12:33:37;54.67;;;34.13;;
56991;SDS011;42885;49.754;18.636;2024-03-06T12:36:26;50.25;;;33.88;;
56991;SDS011;42885;49.754;18.636;2024-03-06T12:39:17;51.35;;;34.20;;
56991;SDS011;42885;49.754;18.636;2024-03-06T12:42:08;51.18;;;35.80;;
56991;SDS011;42885;49.754;18.636;2024-03-06T12:44:59;58.98;;;38.75;;
56991;SDS011;42885;49.754;18.636;2024-03-06T12:47:49;62.70;;;41.23;;
56991;SDS011;42885;49.754;18.636;2024-03-06T12:50:39;53.87;;;35.63;;
56991;SDS011;42885;49.754;18.636;2024-03-06T12:53:29;59.70;;;40.35;;
56991;SDS011;42885;49.754;18.636;2024-03-06T12:56:20;66.77;;;40.88;;
56991;SDS011;42885;49.754;18.636;2024-03-06T12:59:09;63.73;;;40.00;;
56991;SDS011;42885;49.754;18.636;2024-03-06T13:01:58;66.53;;;43.55;;
56991;SDS011;42885;49.754;18.636;2024-03-06T13:04:48;67.37;;;43.25;;
56991;SDS011;42885;49.754;18.636;2024-03-06T13:07:37;64.35;;;43.08;;
56991;SDS011;42885;49.754;18.636;2024-03-06T13:10:28;60.15;;;39.90;;
56991;SDS011;42885;49.754;18.636;2024-03-06T13:13:18;69.90;;;42.55;;
56991;SDS011;42885;49.754;18.636;2024-03-06T13:16:08;67.47;;;42.27;;
56991;SDS011;42885;49.754;18.636;2024-03-06T13:18:57;62.90;;;40.60;;
56991;SDS011;42885;49.754;18.636;2024-03-06T13:21:48;63.20;;;40.40;;
56991;SDS011;42885;49.754;18.636;2024-03-06T13:24:37;62.05;;;39.23;;
56991;SDS011;42885;49.754;18.636;2024-03-06T13:27:26;63.70;;;39.83;;
56991;SDS011;42885;49.754;18.636;2024-03-06T13:30:16;64.62;;;40.12;;
56991;SDS011;42885;49.754;18.636;2024-03-06T13:33:05;63.02;;;39.92;;
56991;SDS011;42885;49.754;18.636;2024-03-06T13:35:54;72.80;;;42.30;;
56991;SDS011;42885;49.754;18.636;2024-03-06T13:38:44;73.30;;;43.75;;
56991;SDS011;42885;49.754;18.636;2024-03-06T13:41:33;67.10;;;42.55;;
56991;SDS011;42885;49.754;18.636;2024-03-06T13:44:23;71.95;;;44.93;;
56991;SDS011;42885;49.754;18.636;2024-03-06T13:47:14;67.53;;;43.25;;
56991;SDS011;42885;49.754;18.636;2024-03-06T13:52:55;68.65;;;42.27;;
56991;SDS011;42885;49.754;18.636;2024-03-06T13:55:45;64.42;;;41.80;;
56991;SDS011;42885;49.754;18.636;2024-03-06T13:58:34;68.57;;;42.08;;
56991;SDS011;42885;49.754;18.636;2024-03-06T14:01:24;66.17;;;42.05;;
56991;SDS011;42885;49.754;18.636;2024-03-06T14:04:14;67.60;;;41.08;;
56991;SDS011;42885;49.754;18.636;2024-03-06T14:07:05;66.73;;;41.60;;
56991;SDS011;42885;49.754;18.636;2024-03-06T14:09:54;60.28;;;36.88;;
56991;SDS011;42885;49.754;18.636;2024-03-06T14:12:44;57.30;;;37.60;;
56991;SDS011;42885;49.754;18.636;2024-03-06T14:15:32;56.98;;;36.23;;
56991;SDS011;42885;49.754;18.636;2024-03-06T14:18:22;54.80;;;35.50;;
56991;SDS011;42885;49.754;18.636;2024-03-06T14:21:11;53.02;;;33.48;;
56991;SDS011;42885;49.754;18.636;2024-03-06T14:24:00;44.03;;;29.23;;
56991;SDS011;42885;49.754;18.636;2024-03-06T14:26:50;41.70;;;28.90;;
56991;SDS011;42885;49.754;18.636;2024-03-06T14:29:40;47.88;;;28.45;;
56991;SDS011;42885;49.754;18.636;2024-03-06T14:32:30;48.83;;;29.20;;
56991;SDS011;42885;49.754;18.636;2024-03-06T14:35:20;46.90;;;31.20;;
56991;SDS011;42885;49.754;18.636;2024-03-06T14:38:09;44.42;;;28.57;;
56991;SDS011;42885;49.754;18.636;2024-03-06T14:41:00;46.98;;;31.05;;
56991;SDS011;42885;49.754;18.636;2024-03-06T14:43:50;66.30;;;43.65;;
56991;SDS011;42885;49.754;18.636;2024-03-06T14:46:40;54.83;;;34.50;;
56991;SDS011;42885;49.754;18.636;2024-03-06T14:49:29;55.67;;;35.10;;
56991;SDS011;42885;49.754;18.636;2024-03-06T14:52:18;53.55;;;33.65;;
56991;SDS011;42885;49.754;18.636;2024-03-06T14:55:07;50.25;;;34.30;;
56991;SDS011;42885;49.754;18.636;2024-03-06T14:57:57;59.10;;;34.60;;
56991;SDS011;42885;49.754;18.636;2024-03-06T15:00:45;55.20;;;35.17;;
56991;SDS011;42885;49.754;18.636;2024-03-06T15:03:35;57.58;;;35.95;;
56991;SDS011;42885;49.754;18.636;2024-03-06T15:06:25;58.78;;;37.33;;
56991;SDS011;42885;49.754;18.636;2024-03-06T15:09:15;64.50;;;39.53;;
56991;SDS011;42885;49.754;18.636;2024-03-06T15:12:05;63.80;;;40.75;;
56991;SDS011;42885;49.754;18.636;2024-03-06T15:14:55;63.10;;;38.73;;
56991;SDS011;42885;49.754;18.636;2024-03-06T15:17:46;59.75;;;38.58;;
56991;SDS011;42885;49.754;18.636;2024-03-06T15:20:35;64.47;;;40.10;;
56991;SDS011;42885;49.754;18.636;2024-03-06T15:23:24;61.30;;;37.85;;
56991;SDS011;42885;49.754;18.636;2024-03-06T15:26:14;61.50;;;36.60;;
56991;SDS011;42885;49.754;18.636;2024-03-06T15:29:03;59.30;;;36.23;;
56991;SDS011;42885;49.754;18.636;2024-03-06T15:31:53;60.35;;;36.38;;
56991;SDS011;42885;49.754;18.636;2024-03-06T15:34:42;55.73;;;35.03;;
56991;SDS011;42885;49.754;18.636;2024-03-06T15:37:32;56.05;;;34.60;;
56991;SDS011;42885;49.754;18.636;2024-03-06T15:40:21;54.27;;;34.65;;
56991;SDS011;42885;49.754;18.636;2024-03-06T15:43:12;52.23;;;34.65;;
56991;SDS011;42885;49.754;18.636;2024-03-06T15:46:00;57.62;;;36.58;;
56991;SDS011;42885;49.754;18.636;2024-03-06T15:48:49;121.25;;;77.70;;
56991;SDS011;42885;49.754;18.636;2024-03-06T15:51:38;56.15;;;35.17;;
56991;SDS011;42885;49.754;18.636;2024-03-06T15:54:27;50.28;;;32.85;;
56991;SDS011;42885;49.754;18.636;2024-03-06T15:57:17;50.85;;;33.33;;
56991;SDS011;42885;49.754;18.636;2024-03-06T16:00:07;48.70;;;31.82;;
56991;SDS011;42885;49.754;18.636;2024-03-06T16:02:58;52.63;;;31.47;;
56991;SDS011;42885;49.754;18.636;2024-03-06T16:05:46;46.63;;;30.00;;
56991;SDS011;42885;49.754;18.636;2024-03-06T16:08:37;51.30;;;32.15;;
56991;SDS011;42885;49.754;18.636;2024-03-06T16:11:27;43.63;;;30.40;;
56991;SDS011;42885;49.754;18.636;2024-03-06T16:14:17;49.00;;;32.78;;
56991;SDS011;42885;49.754;18.636;2024-03-06T16:17:06;50.43;;;32.65;;
56991;SDS011;42885;49.754;18.636;2024-03-06T16:19:55;46.37;;;31.75;;
56991;SDS011;42885;49.754;18.636;2024-03-06T16:22:44;45.00;;;30.60;;